Time;durP1;ratioP1;P1;durP2;ratioP2;P2;SDS_P1;SDS_P2;PMS_P1;PMS_P2;Temp;Humidity;BMP_temperature;BMP_pressure;BME280_temperature;BME280_humidity;BME280_pressure;Samples;Min_cycle;Max_cycle;Signal;HPM_P1;HPM_P2
2022/01/25 00:24:14;;;;;;;19.50;16.90;;;4.20;99.90;;;;;;5051817;28;20255;-65
2022/01/25 00:24:20;;;;;;;23.13;17.70;;;4.10;99.90;;;;;;5052652;28;20682;-65
2022/01/25 00:27:00;;;;;;;19.37;17.37;;;4.10;99.90;;;;;;5051573;28;20166;-65
2022/01/25 00:29:33;;;;;;;20.93;16.37;;;4.10;99.90;;;;;;5051468;28;20187;-65
2022/01/25 00:31:59;;;;;;;18.03;16.23;;;4.10;99.90;;;;;;5052356;28;20598;-65
2022/01/25 00:34:24;;;;;;;20.90;17.30;;;4.10;99.90;;;;;;5071374;28;20194;-65
2022/01/25 00:36:50;;;;;;;21.30;17.27;;;4.10;99.90;;;;;;5053524;28;20178;-65
2022/01/25 00:39:15;;;;;;;20.70;16.83;;;4.10;99.90;;;;;;5038276;28;20285;-66
2022/01/25 00:41:41;;;;;;;21.30;15.83;;;4.20;99.90;;;;;;5071411;28;20606;-65
2022/01/25 00:44:09;;;;;;;18.23;16.27;;;4.20;99.90;;;;;;5053391;28;20189;-65
2022/01/25 00:46:35;;;;;;;21.10;16.00;;;4.20;99.90;;;;;;5051243;28;20171;-65
2022/01/25 00:49:03;;;;;;;17.23;15.33;;;4.20;99.90;;;;;;5067001;28;20194;-65
2022/01/25 00:54:02;;;;;;;21.67;17.13;;;4.20;99.90;;;;;;5051221;28;20255;-65
2022/01/25 00:56:36;;;;;;;23.43;17.60;;;4.20;99.90;;;;;;5064004;28;20650;-65
2022/01/25 00:59:06;;;;;;;19.67;15.83;;;4.20;99.90;;;;;;5071178;28;20196;-65
2022/01/25 01:01:34;;;;;;;20.30;16.53;;;4.30;99.90;;;;;;5058126;28;20194;-65
2022/01/25 01:04:00;;;;;;;21.17;15.70;;;4.30;99.90;;;;;;5033254;28;20170;-66
2022/01/25 01:06:26;;;;;;;17.20;15.40;;;4.30;99.90;;;;;;5062271;28;20197;-65
2022/01/25 01:08:54;;;;;;;21.10;16.13;;;4.30;99.90;;;;;;5070978;28;20682;-65
2022/01/25 01:11:28;;;;;;;21.17;16.40;;;4.40;99.90;;;;;;5064997;28;20270;-65
2022/01/25 01:14:01;;;;;;;18.70;16.57;;;4.30;99.90;;;;;;5054799;28;20216;-65
2022/01/25 01:45:32;;;;;;;18.53;16.47;;;4.30;99.90;;;;;;5062658;28;20190;-64
2022/01/25 01:48:03;;;;;;;23.87;19.17;;;4.40;99.90;;;;;;5054691;28;20511;-63
2022/01/25 01:50:33;;;;;;;20.13;18.00;;;4.40;99.90;;;;;;5067691;28;20180;-65
2022/01/25 01:53:00;;;;;;;22.13;17.70;;;4.50;99.90;;;;;;5074262;28;20170;-64
2022/01/25 01:55:26;;;;;;;19.43;17.40;;;4.50;99.90;;;;;;5065392;28;20237;-64
2022/01/25 01:57:54;;;;;;;19.10;17.10;;;4.50;99.90;;;;;;5087273;28;20180;-64
2022/01/25 02:00:30;;;;;;;25.67;18.90;;;4.50;99.90;;;;;;5094363;28;20170;-65
2022/01/25 02:02:56;;;;;;;18.07;16.27;;;4.50;99.90;;;;;;5076015;28;20165;-65
2022/01/25 02:05:21;;;;;;;26.87;16.20;;;4.50;99.90;;;;;;5083213;28;20182;-65
2022/01/25 02:07:47;;;;;;;21.00;17.03;;;4.50;99.90;;;;;;5074144;28;20182;-65
2022/01/25 02:10:13;;;;;;;17.67;15.97;;;4.50;99.90;;;;;;5065741;28;20234;-65
2022/01/25 02:12:40;;;;;;;20.73;16.73;;;4.50;99.90;;;;;;5059386;28;20191;-64
2022/01/25 02:15:07;;;;;;;18.97;16.83;;;4.50;99.90;;;;;;5072620;28;20335;-65
2022/01/25 02:23:23;;;;;;;19.47;17.13;;;4.50;99.90;;;;;;5060885;28;20582;-65
2022/01/25 02:25:55;;;;;;;17.60;15.83;;;4.50;99.90;;;;;;5072052;28;20584;-65
2022/01/25 02:28:27;;;;;;;18.07;16.13;;;4.50;99.90;;;;;;5073784;28;20264;-65
2022/01/25 02:30:53;;;;;;;22.10;16.70;;;4.50;99.90;;;;;;5066943;28;20651;-64
2022/01/25 02:33:20;;;;;;;17.70;15.77;;;4.50;99.90;;;;;;5053435;28;20243;-65
2022/01/25 02:35:45;;;;;;;21.17;16.40;;;4.50;99.90;;;;;;5058316;28;20198;-65
2022/01/25 02:38:14;;;;;;;19.50;15.87;;;4.40;99.90;;;;;;5073643;28;20539;-65
2022/01/25 02:40:40;;;;;;;19.97;17.17;;;4.50;99.90;;;;;;5071810;28;20170;-65
2022/01/25 02:43:06;;;;;;;19.60;17.60;;;4.50;99.90;;;;;;5073257;28;20167;-67
2022/01/25 02:45:34;;;;;;;22.40;17.53;;;4.40;99.90;;;;;;5070072;28;20178;-65
2022/01/25 02:50:45;;;;;;;21.27;17.57;;;4.40;99.90;;;;;;5057172;28;20319;-65
2022/01/25 02:53:10;;;;;;;20.63;17.27;;;4.40;99.90;;;;;;5053852;28;20264;-65
2022/01/25 02:55:39;;;;;;;21.67;17.77;;;4.40;99.90;;;;;;5070273;28;20750;-66
2022/01/25 02:58:05;;;;;;;26.33;18.00;;;4.50;99.90;;;;;;5053030;28;20670;-65
2022/01/25 03:00:31;;;;;;;21.03;18.20;;;4.50;99.90;;;;;;5053733;28;20162;-65
2022/01/25 03:02:57;;;;;;;20.83;17.93;;;4.50;99.90;;;;;;5067723;28;20182;-65
2022/01/25 03:05:23;;;;;;;22.90;18.57;;;4.50;99.90;;;;;;5072982;28;20178;-65
2022/01/25 03:07:48;;;;;;;21.27;18.50;;;4.40;99.90;;;;;;5053568;28;20175;-65
2022/01/25 03:10:14;;;;;;;20.07;17.97;;;4.40;99.90;;;;;;5069448;28;20210;-65
2022/01/25 03:12:48;;;;;;;20.40;17.83;;;4.50;99.90;;;;;;5072515;28;20602;-65
2022/01/25 03:17:52;;;;;;;21.97;19.67;;;4.50;99.90;;;;;;5052688;28;20163;-65
2022/01/25 03:20:21;;;;;;;22.70;18.57;;;4.60;99.90;;;;;;5068646;28;20228;-65
2022/01/25 03:25:19;;;;;;;25.20;18.93;;;4.50;99.90;;;;;;5057360;28;20179;-65
2022/01/25 03:27:44;;;;;;;20.73;17.33;;;4.60;99.90;;;;;;5052559;28;20202;-65
2022/01/25 03:30:10;;;;;;;20.93;17.83;;;4.60;99.90;;;;;;5065646;28;20248;-66
2022/01/25 03:32:36;;;;;;;23.93;18.70;;;4.60;99.90;;;;;;5071614;28;20166;-65
2022/01/25 03:35:02;;;;;;;21.17;17.47;;;4.60;99.90;;;;;;5060407;28;20210;-65
2022/01/25 03:37:28;;;;;;;21.50;18.03;;;4.60;99.90;;;;;;5052341;28;20570;-65
2022/01/25 03:39:53;;;;;;;23.97;19.03;;;4.50;99.90;;;;;;5061825;28;20198;-65
2022/01/25 03:42:19;;;;;;;21.83;17.47;;;4.50;99.90;;;;;;5072110;28;20185;-66
2022/01/25 03:44:45;;;;;;;23.10;18.80;;;4.50;99.90;;;;;;5064134;28;20182;-65
2022/01/25 03:47:15;;;;;;;18.83;16.50;;;4.50;99.90;;;;;;5052359;28;20178;-65
2022/01/25 03:49:49;;;;;;;22.83;19.53;;;4.50;99.90;;;;;;5058646;28;20197;-65
2022/01/25 03:52:19;;;;;;;23.07;18.60;;;4.50;99.90;;;;;;5071999;28;20182;-65
2022/01/25 03:54:45;;;;;;;20.50;17.60;;;4.50;99.90;;;;;;5065506;28;20201;-65
2022/01/25 03:57:10;;;;;;;27.10;19.43;;;4.40;99.90;;;;;;5052100;28;20179;-65
2022/01/25 03:59:36;;;;;;;23.33;18.63;;;4.30;99.90;;;;;;5056372;28;20205;-65
2022/01/25 04:02:02;;;;;;;27.43;20.70;;;4.20;99.90;;;;;;5069745;28;20197;-65
2022/01/25 04:04:29;;;;;;;23.90;19.53;;;4.20;99.90;;;;;;5051920;28;20178;-65
2022/01/25 04:06:55;;;;;;;25.87;20.70;;;4.20;99.90;;;;;;5052185;28;20249;-66
2022/01/25 04:09:21;;;;;;;23.67;19.37;;;4.10;99.90;;;;;;5088712;22;20249;-65
2022/01/25 04:11:47;;;;;;;26.00;20.07;;;4.10;99.90;;;;;;5067038;28;20658;-67
2022/01/25 04:14:13;;;;;;;27.73;20.00;;;4.20;99.90;;;;;;5031889;28;20227;-67
2022/01/25 04:16:56;;;;;;;22.60;20.03;;;4.10;99.90;;;;;;5031549;28;20679;-65
2022/01/25 04:19:32;;;;;;;24.87;20.03;;;4.20;99.90;;;;;;5031967;28;20191;-66
2022/01/25 04:27:22;;;;;;;29.30;21.03;;;4.30;99.90;;;;;;5033164;28;20187;-64
2022/01/25 04:29:48;;;;;;;30.03;21.33;;;4.30;99.90;;;;;;5051906;28;20198;-66
2022/01/25 04:32:14;;;;;;;22.70;18.50;;;4.30;99.90;;;;;;5032281;28;20265;-65
2022/01/25 04:34:57;;;;;;;28.27;19.77;;;4.30;99.90;;;;;;5031593;28;20183;-66
2022/01/25 04:51:23;;;;;;;26.60;20.27;;;4.20;99.90;;;;;;5044250;28;20182;-65
2022/01/25 04:54:09;;;;;;;25.63;19.67;;;4.20;99.90;;;;;;5031144;28;20179;-65
2022/01/25 04:56:53;;;;;;;29.13;19.73;;;4.20;99.90;;;;;;5041899;28;20186;-66
2022/01/25 04:59:27;;;;;;;26.77;20.17;;;4.10;99.90;;;;;;5040981;28;20187;-66
2022/01/25 05:01:59;;;;;;;28.80;20.67;;;4.10;99.90;;;;;;5031661;28;20199;-66
2022/01/25 05:04:30;;;;;;;27.50;21.00;;;4.10;99.90;;;;;;5041527;28;20278;-65
2022/01/25 05:07:06;;;;;;;23.97;20.40;;;4.10;99.90;;;;;;5051628;28;20652;-66
2022/01/25 05:09:33;;;;;;;29.47;21.60;;;4.10;99.90;;;;;;5040262;28;20207;-64
2022/01/25 05:11:59;;;;;;;26.37;20.53;;;4.10;99.90;;;;;;5031402;28;20167;-65
2022/01/25 05:14:31;;;;;;;31.77;22.07;;;4.10;99.90;;;;;;5040372;28;20289;-66
2022/01/25 05:17:00;;;;;;;25.33;22.00;;;4.10;99.90;;;;;;5051549;28;20248;-65
2022/01/25 05:24:41;;;;;;;29.17;20.33;;;4.30;99.90;;;;;;5041276;28;20264;-66
2022/01/25 05:27:08;;;;;;;27.83;21.23;;;4.30;99.90;;;;;;5043863;28;20222;-66
2022/01/25 05:29:34;;;;;;;27.37;20.40;;;4.30;99.90;;;;;;5031047;28;20206;-66
2022/01/25 05:32:00;;;;;;;25.63;21.00;;;4.40;99.90;;;;;;5036749;28;20640;-65
2022/01/25 05:34:26;;;;;;;29.80;21.07;;;4.40;99.90;;;;;;5051009;28;20191;-66
2022/01/25 05:36:52;;;;;;;25.47;20.63;;;4.40;99.90;;;;;;5046561;28;20172;-66
2022/01/25 05:39:32;;;;;;;25.50;21.23;;;4.40;99.90;;;;;;5030915;28;20194;-65
2022/01/25 05:42:12;;;;;;;24.30;20.10;;;4.40;99.90;;;;;;5035115;28;20210;-64
2022/01/25 05:44:56;;;;;;;25.00;20.03;;;4.40;99.90;;;;;;5045137;28;20180;-65
2022/01/25 05:47:27;;;;;;;29.17;21.70;;;4.30;99.90;;;;;;5031573;28;20179;-66
2022/01/25 05:49:53;;;;;;;25.10;19.33;;;4.30;99.90;;;;;;5031776;28;20206;-66
2022/01/25 05:52:19;;;;;;;30.10;21.13;;;4.30;99.90;;;;;;5030897;28;20175;-66
2022/01/25 05:54:45;;;;;;;32.47;23.63;;;4.20;99.90;;;;;;5035684;28;20272;-66
2022/01/25 05:57:11;;;;;;;29.47;21.50;;;4.30;99.90;;;;;;5052946;28;20632;-65
2022/01/25 05:59:37;;;;;;;24.97;21.50;;;4.20;99.90;;;;;;5049911;28;20207;-65
2022/01/25 06:02:04;;;;;;;26.93;21.33;;;4.30;99.90;;;;;;5034354;28;20175;-66
2022/01/25 06:04:30;;;;;;;31.07;21.73;;;4.30;99.90;;;;;;5035956;28;20168;-65
2022/01/25 06:06:55;;;;;;;25.40;20.67;;;4.20;99.90;;;;;;5054283;28;20224;-66
2022/01/25 06:09:24;;;;;;;31.70;23.30;;;4.20;99.90;;;;;;5053649;28;20714;-66
2022/01/25 06:11:51;;;;;;;28.40;21.13;;;4.30;99.90;;;;;;5034449;28;20537;-66
2022/01/25 06:14:16;;;;;;;29.00;21.20;;;4.30;99.90;;;;;;5052455;28;20194;-66
2022/01/25 06:16:42;;;;;;;28.70;21.30;;;4.40;99.90;;;;;;5054224;28;20173;-66
2022/01/25 06:19:08;;;;;;;23.37;19.87;;;4.40;99.90;;;;;;5037188;28;20263;-67
2022/01/25 06:21:33;;;;;;;32.03;21.03;;;4.40;99.90;;;;;;5034056;28;20696;-67
2022/01/25 06:23:59;;;;;;;30.37;21.33;;;4.40;99.90;;;;;;5048783;28;20710;-67
2022/01/25 06:26:25;;;;;;;29.13;22.33;;;4.30;99.90;;;;;;5043470;28;20217;-66
2022/01/25 06:28:50;;;;;;;30.87;21.57;;;4.30;99.90;;;;;;5033878;28;20245;-66
2022/01/25 06:31:17;;;;;;;30.00;21.97;;;4.30;99.90;;;;;;5042374;28;20169;-67
2022/01/25 06:33:44;;;;;;;28.50;21.20;;;4.30;99.90;;;;;;5053389;28;20171;-66
2022/01/25 06:36:10;;;;;;;30.93;21.90;;;4.40;99.90;;;;;;5046255;28;20195;-67
2022/01/25 06:38:36;;;;;;;32.37;22.70;;;4.40;99.90;;;;;;5033512;28;20228;-67
2022/01/25 06:41:02;;;;;;;28.13;22.43;;;4.40;99.90;;;;;;5038977;28;20541;-67
2022/01/25 06:43:28;;;;;;;30.60;21.67;;;4.40;99.90;;;;;;5053009;28;20268;-67
2022/01/25 06:46:01;;;;;;;28.93;21.90;;;4.40;99.90;;;;;;5049586;28;20279;-67
2022/01/25 06:48:26;;;;;;;28.90;20.03;;;4.40;99.90;;;;;;5033736;28;20266;-67
2022/01/25 06:50:52;;;;;;;27.07;20.00;;;4.30;99.90;;;;;;5038047;28;20596;-67
2022/01/25 06:53:18;;;;;;;26.97;19.63;;;4.20;99.90;;;;;;5053164;28;20178;-67
2022/01/25 06:55:44;;;;;;;26.40;19.00;;;4.10;99.90;;;;;;5050060;28;20203;-67
2022/01/25 06:58:10;;;;;;;24.87;20.50;;;4.00;99.90;;;;;;5033532;28;20638;-65
2022/01/25 07:00:36;;;;;;;27.57;20.47;;;4.00;99.90;;;;;;5034379;28;20665;-67
2022/01/25 07:03:02;;;;;;;29.13;19.00;;;3.90;99.90;;;;;;5049535;28;20182;-67
2022/01/25 07:05:28;;;;;;;28.27;20.80;;;3.80;99.90;;;;;;5053103;28;20249;-66
2022/01/25 07:07:54;;;;;;;29.07;20.33;;;3.80;99.90;;;;;;5052597;28;20258;-66
2022/01/25 07:10:21;;;;;;;28.50;21.37;;;3.70;99.90;;;;;;5052938;28;20210;-67
2022/01/25 07:12:47;;;;;;;36.03;23.97;;;3.70;99.90;;;;;;5035108;28;20205;-66
2022/01/25 07:15:13;;;;;;;28.63;18.97;;;3.60;99.90;;;;;;5033081;28;20199;-66
2022/01/25 07:17:39;;;;;;;34.43;21.13;;;3.60;99.90;;;;;;5049184;28;20197;-67
2022/01/25 07:20:06;;;;;;;30.23;20.90;;;3.60;99.90;;;;;;5052894;28;20191;-67
2022/01/25 07:22:36;;;;;;;33.87;22.20;;;3.60;99.90;;;;;;5050655;28;20178;-66
2022/01/25 07:25:05;;;;;;;27.70;19.90;;;3.50;99.90;;;;;;5052689;28;20170;-66
2022/01/25 07:27:30;;;;;;;37.57;22.53;;;3.50;99.90;;;;;;5038026;28;20310;-66
2022/01/25 07:29:56;;;;;;;27.97;20.57;;;3.60;99.90;;;;;;5032766;28;20223;-66
2022/01/25 07:32:22;;;;;;;34.73;23.67;;;3.60;99.90;;;;;;5045457;28;20273;-67
2022/01/25 07:34:47;;;;;;;34.97;22.10;;;3.60;99.90;;;;;;5034984;28;20218;-67
2022/01/25 07:37:13;;;;;;;27.97;20.33;;;3.60;99.90;;;;;;5044377;28;20265;-66
2022/01/25 07:39:39;;;;;;;30.77;20.37;;;3.50;99.90;;;;;;5052327;28;20191;-64
2022/01/25 07:42:05;;;;;;;29.57;21.40;;;3.60;99.90;;;;;;5042023;28;20664;-66
2022/01/25 07:44:35;;;;;;;31.27;20.77;;;3.60;99.90;;;;;;5048227;28;20191;-66
2022/01/25 07:47:01;;;;;;;32.67;20.83;;;3.60;99.90;;;;;;5048255;28;20183;-66
2022/01/25 07:49:30;;;;;;;32.60;22.90;;;3.60;99.90;;;;;;5051052;28;20191;-65
2022/01/25 07:51:57;;;;;;;30.17;20.87;;;3.60;99.90;;;;;;5037063;28;20179;-67
2022/01/25 07:54:23;;;;;;;31.47;20.60;;;3.50;99.90;;;;;;5032273;28;20260;-66
2022/01/25 07:56:48;;;;;;;31.60;20.87;;;3.50;99.90;;;;;;5052342;28;20178;-66
2022/01/25 07:59:15;;;;;;;33.93;21.37;;;3.60;99.90;;;;;;5036245;28;20203;-66
2022/01/25 08:01:41;;;;;;;32.27;22.33;;;3.50;99.90;;;;;;5032463;28;20171;-66
2022/01/25 08:04:11;;;;;;;29.17;20.83;;;3.50;99.90;;;;;;5045895;28;20171;-67
2022/01/25 08:06:38;;;;;;;33.67;22.10;;;3.40;99.90;;;;;;5052181;28;20550;-66
2022/01/25 08:09:08;;;;;;;40.60;22.10;;;3.50;99.90;;;;;;5046286;28;20237;-65
2022/01/25 08:11:34;;;;;;;29.10;20.87;;;3.50;99.90;;;;;;5050147;28;20177;-66
2022/01/25 08:14:21;;;;;;;35.60;21.00;;;3.60;99.90;;;;;;5038756;28;20574;-66
2022/01/25 08:16:49;;;;;;;34.63;22.53;;;3.60;99.90;;;;;;5047192;28;20179;-66
2022/01/25 08:19:15;;;;;;;32.67;22.37;;;3.60;99.90;;;;;;5031661;28;20249;-66
2022/01/25 08:21:41;;;;;;;29.20;20.03;;;3.50;99.90;;;;;;5033455;28;20168;-67
2022/01/25 08:24:13;;;;;;;33.57;21.20;;;3.60;99.90;;;;;;5051466;28;20181;-66
2022/01/25 08:26:40;;;;;;;32.47;20.63;;;3.70;99.90;;;;;;5049805;28;20163;-66
2022/01/25 08:29:06;;;;;;;31.20;19.53;;;3.90;99.90;;;;;;5035406;28;20234;-67
2022/01/25 08:31:32;;;;;;;29.73;20.37;;;3.80;99.90;;;;;;5051194;28;20178;-67
2022/01/25 08:33:58;;;;;;;29.30;20.20;;;3.80;99.90;;;;;;5031703;28;20195;-66
2022/01/25 08:36:24;;;;;;;31.07;20.90;;;3.70;99.90;;;;;;5030030;28;20202;-64
2022/01/25 08:38:50;;;;;;;33.67;21.70;;;3.80;99.90;;;;;;5049506;28;20245;-67
2022/01/25 08:41:17;;;;;;;29.27;20.13;;;3.80;99.90;;;;;;5047048;28;20177;-67
2022/01/25 08:43:42;;;;;;;36.63;20.73;;;3.70;99.90;;;;;;5031002;28;20171;-65
2022/01/25 08:46:09;;;;;;;35.30;21.27;;;3.70;99.90;;;;;;5034171;28;20741;-67
2022/01/25 08:48:34;;;;;;;31.23;21.53;;;3.70;99.90;;;;;;5050788;28;20167;-67
2022/01/25 08:51:01;;;;;;;28.97;19.47;;;3.70;99.90;;;;;;5048617;28;20179;-67
2022/01/25 08:53:27;;;;;;;31.30;20.60;;;3.80;99.90;;;;;;5028858;28;20676;-67
2022/01/25 08:55:52;;;;;;;35.57;19.97;;;3.80;99.90;;;;;;5031566;28;20292;-67
2022/01/25 08:58:18;;;;;;;37.27;22.00;;;3.80;99.90;;;;;;5049943;28;20179;-67
2022/01/25 09:00:44;;;;;;;28.60;19.50;;;3.70;99.90;;;;;;5046114;28;20193;-67
2022/01/25 09:03:11;;;;;;;29.17;20.47;;;3.70;99.90;;;;;;5051370;28;20300;-67
2022/01/25 09:05:37;;;;;;;28.90;20.60;;;3.80;99.90;;;;;;5039803;28;20186;-66
2022/01/25 09:08:05;;;;;;;33.27;21.67;;;3.90;99.90;;;;;;5031423;28;20168;-67
2022/01/25 09:10:31;;;;;;;31.37;21.17;;;4.00;99.90;;;;;;5034913;28;20257;-67
2022/01/25 09:12:57;;;;;;;28.87;20.03;;;3.90;99.90;;;;;;5031139;28;20179;-67
2022/01/25 09:15:22;;;;;;;34.23;22.03;;;4.00;99.90;;;;;;5043232;28;20597;-67
2022/01/25 09:17:49;;;;;;;49.27;27.70;;;4.00;99.90;;;;;;5039482;28;20175;-67
2022/01/25 09:20:14;;;;;;;31.60;21.03;;;4.10;99.90;;;;;;5051083;28;20194;-67
2022/01/25 09:22:40;;;;;;;30.13;20.00;;;4.20;99.90;;;;;;5035316;28;20585;-67
2022/01/25 09:25:06;;;;;;;30.53;20.37;;;4.20;99.90;;;;;;5042636;28;20211;-67
2022/01/25 09:27:32;;;;;;;32.53;21.60;;;4.20;99.90;;;;;;5048829;28;20232;-66
2022/01/25 09:29:58;;;;;;;34.10;21.63;;;4.30;99.90;;;;;;5035121;28;20212;-67
2022/01/25 09:32:23;;;;;;;31.33;21.47;;;4.30;99.90;;;;;;5041701;28;20182;-67
2022/01/25 09:34:49;;;;;;;29.00;20.40;;;4.40;99.90;;;;;;5054852;28;20218;-67
2022/01/25 09:37:15;;;;;;;29.53;20.23;;;4.50;99.90;;;;;;5051423;28;20254;-67
2022/01/25 09:39:41;;;;;;;28.73;20.00;;;4.60;99.90;;;;;;5037371;28;20530;-67
2022/01/25 09:42:09;;;;;;;27.00;19.47;;;4.60;99.90;;;;;;5037703;28;20183;-67
2022/01/25 09:44:40;;;;;;;29.27;20.80;;;4.70;99.90;;;;;;5036552;28;20262;-67
2022/01/25 09:47:09;;;;;;;29.57;19.97;;;4.70;99.90;;;;;;5035907;28;20171;-67
2022/01/25 09:49:36;;;;;;;32.10;20.17;;;4.70;99.90;;;;;;5054109;28;20206;-67
2022/01/25 09:52:05;;;;;;;30.53;20.13;;;4.70;99.90;;;;;;5053941;28;20540;-67
2022/01/25 09:54:32;;;;;;;151.03;122.53;;;4.80;99.90;;;;;;5033258;28;20206;-65
2022/01/25 09:56:58;;;;;;;52.07;36.33;;;4.80;99.90;;;;;;5034857;28;20533;-67
2022/01/25 09:59:26;;;;;;;29.93;20.37;;;4.80;99.90;;;;;;5054330;28;20200;-66
2022/01/25 10:01:52;;;;;;;25.83;19.20;;;4.80;99.90;;;;;;5054510;28;20163;-67
2022/01/25 10:04:30;;;;;;;28.43;18.97;;;4.90;99.90;;;;;;5035731;28;20542;-67
2022/01/25 10:06:56;;;;;;;29.07;19.70;;;4.90;99.90;;;;;;5051004;28;20171;-67
2022/01/25 10:09:24;;;;;;;33.27;19.87;;;4.80;99.90;;;;;;5054429;28;20722;-67
2022/01/25 10:11:50;;;;;;;29.00;19.83;;;4.80;99.90;;;;;;5043777;28;20179;-65
2022/01/25 10:14:16;;;;;;;32.83;19.50;;;4.70;99.90;;;;;;5034991;28;20259;-65
2022/01/25 10:16:45;;;;;;;32.60;20.27;;;4.70;99.90;;;;;;5034030;28;20203;-65
2022/01/25 10:19:12;;;;;;;30.50;20.73;;;4.70;99.90;;;;;;5041497;28;20194;-65
2022/01/25 10:21:42;;;;;;;27.70;19.87;;;4.70;99.90;;;;;;5053693;28;20249;-65
2022/01/25 10:24:15;;;;;;;34.50;21.20;;;4.80;99.90;;;;;;5052219;28;20179;-65
2022/01/25 10:27:16;;;;;;;39.03;23.27;;;4.80;99.90;;;;;;5054036;28;20183;-65
2022/01/25 10:29:42;;;;;;;35.27;20.77;;;4.90;99.90;;;;;;5000218;28;20200;-66
2022/01/25 10:32:10;;;;;;;34.90;22.03;;;4.90;99.90;;;;;;5024779;28;20197;-66
2022/01/25 10:34:39;;;;;;;34.60;20.73;;;5.00;99.90;;;;;;5034715;28;20250;-66
2022/01/25 10:37:11;;;;;;;32.80;20.73;;;5.00;99.90;;;;;;5033902;28;20540;-65
2022/01/25 10:39:41;;;;;;;31.17;18.90;;;5.10;99.90;;;;;;5047386;28;20202;-66
2022/01/25 10:42:15;;;;;;;35.13;22.13;;;5.10;99.90;;;;;;5052798;28;20183;-65
2022/01/25 10:44:54;;;;;;;35.13;26.07;;;5.20;99.90;;;;;;5038583;28;20183;-66
2022/01/25 10:47:42;;;;;;;33.90;22.43;;;5.30;99.90;;;;;;5033548;28;20185;-66
2022/01/25 10:50:18;;;;;;;28.43;20.53;;;5.40;99.90;;;;;;5050981;28;20199;-64
2022/01/25 10:52:45;;;;;;;36.27;21.33;;;5.40;99.90;;;;;;5053077;28;20171;-64
2022/01/25 10:55:12;;;;;;;40.07;21.20;;;5.40;99.90;;;;;;5035536;28;20298;-65
2022/01/25 10:57:38;;;;;;;33.83;19.40;;;5.40;99.90;;;;;;5041494;28;20175;-65
2022/01/25 11:00:09;;;;;;;35.70;21.27;;;5.40;99.90;;;;;;5053215;28;20218;-66
2022/01/25 11:02:35;;;;;;;30.40;19.77;;;5.50;99.90;;;;;;5048912;28;20719;-65
2022/01/25 11:05:06;;;;;;;29.30;20.27;;;5.50;99.90;;;;;;5053218;28;20175;-66
2022/01/25 11:07:50;;;;;;;30.87;20.37;;;5.60;99.90;;;;;;5042418;28;20681;-66
2022/01/25 11:10:20;;;;;;;34.17;19.70;;;5.70;99.90;;;;;;5032969;28;20701;-65
2022/01/25 11:13:22;;;;;;;36.20;21.53;;;5.80;99.90;;;;;;5043406;28;20182;-66
2022/01/25 11:15:32;;;;;;;35.77;21.47;;;5.80;99.90;;;;;;5052147;28;20213;-65
2022/01/25 11:17:58;;;;;;;87.33;43.60;;;5.90;99.90;;;;;;5039623;28;20180;-65
2022/01/25 11:20:24;;;;;;;37.20;23.17;;;5.80;99.90;;;;;;5032963;28;20210;-66
2022/01/25 11:22:50;;;;;;;31.67;20.77;;;5.80;99.90;;;;;;5043208;28;20198;-66
2022/01/25 11:25:19;;;;;;;29.80;20.00;;;5.70;99.90;;;;;;5052918;28;20179;-65
2022/01/25 11:27:45;;;;;;;33.40;22.67;;;5.70;99.90;;;;;;5047512;28;20565;-65
2022/01/25 11:30:18;;;;;;;30.77;20.20;;;5.80;99.90;;;;;;5052525;28;20281;-66
2022/01/25 11:32:48;;;;;;;29.50;19.93;;;5.80;99.90;;;;;;5052189;28;20604;-66
2022/01/25 11:35:19;;;;;;;32.37;21.90;;;5.80;99.90;;;;;;5052208;28;20210;-66
2022/01/25 11:37:48;;;;;;;31.50;21.00;;;5.70;99.90;;;;;;5052299;28;20228;-65
2022/01/25 11:40:37;;;;;;;35.93;21.67;;;5.60;99.90;;;;;;5035124;28;20684;-65
2022/01/25 11:43:09;;;;;;;29.80;19.73;;;5.60;99.90;;;;;;5032341;28;20657;-66
2022/01/25 11:45:41;;;;;;;33.90;21.37;;;5.60;99.90;;;;;;5051764;28;20182;-66
2022/01/25 11:48:08;;;;;;;33.80;21.73;;;5.60;99.90;;;;;;5052481;28;20221;-66
2022/01/25 11:50:39;;;;;;;38.23;21.17;;;5.60;99.90;;;;;;5051476;28;20275;-66
2022/01/25 11:53:11;;;;;;;32.93;21.03;;;5.60;99.90;;;;;;5051051;28;20179;-67
2022/01/25 11:55:41;;;;;;;32.03;22.13;;;5.50;99.90;;;;;;5032218;28;20231;-67
2022/01/25 11:58:16;;;;;;;34.27;21.53;;;5.50;99.90;;;;;;5032563;28;20164;-67
2022/01/25 12:00:49;;;;;;;30.47;19.67;;;5.50;99.90;;;;;;5051218;28;20205;-67
2022/01/25 12:03:28;;;;;;;34.37;22.60;;;5.50;99.90;;;;;;5052274;28;20673;-67
2022/01/25 12:06:12;;;;;;;30.87;21.07;;;5.40;99.90;;;;;;5032037;28;20194;-67
2022/01/25 12:08:54;;;;;;;30.27;21.23;;;5.40;99.90;;;;;;5032835;28;20171;-67
2022/01/25 12:11:32;;;;;;;34.27;20.20;;;5.40;99.90;;;;;;5032906;28;20203;-66
2022/01/25 12:14:13;;;;;;;29.77;20.17;;;5.30;99.90;;;;;;5044861;28;20191;-67
2022/01/25 12:16:43;;;;;;;29.53;20.07;;;5.10;99.90;;;;;;5053051;28;20178;-67
2022/01/25 12:19:11;;;;;;;28.53;20.90;;;5.10;99.90;;;;;;5038479;28;20257;-67
2022/01/25 12:21:53;;;;;;;28.53;19.17;;;5.00;99.90;;;;;;5033773;28;20200;-67
2022/01/25 12:24:24;;;;;;;30.23;19.20;;;5.00;99.90;;;;;;5051876;28;20644;-66
2022/01/25 12:26:57;;;;;;;31.50;19.97;;;4.80;99.90;;;;;;5049265;28;20182;-66
2022/01/25 12:29:34;;;;;;;29.50;19.60;;;4.90;99.90;;;;;;5031704;28;20680;-66
2022/01/25 12:32:34;;;;;;;30.77;20.33;;;4.90;99.90;;;;;;5034423;28;20179;-66
2022/01/25 12:35:14;;;;;;;30.60;19.70;;;4.90;99.90;;;;;;5051702;28;20210;-67
2022/01/25 12:37:43;;;;;;;25.73;19.23;;;4.90;99.90;;;;;;5042754;28;20660;-66
2022/01/25 12:40:26;;;;;;;31.33;19.00;;;4.80;99.90;;;;;;5031565;28;20248;-65
2022/01/25 12:43:15;;;;;;;29.00;18.37;;;4.90;99.90;;;;;;5040138;28;20662;-65
2022/01/25 12:45:50;;;;;;;30.70;20.53;;;4.90;99.90;;;;;;5043150;28;20187;-65
2022/01/25 12:48:19;;;;;;;30.23;20.27;;;5.00;99.90;;;;;;5031412;28;20253;-66
2022/01/25 12:50:48;;;;;;;28.63;19.50;;;5.00;99.90;;;;;;5034300;28;20211;-66
2022/01/25 12:53:17;;;;;;;30.30;21.17;;;5.00;99.90;;;;;;5052209;28;20237;-65
2022/01/25 12:55:46;;;;;;;27.43;19.77;;;4.90;99.90;;;;;;5052613;28;20695;-66
2022/01/25 12:58:13;;;;;;;29.60;18.73;;;4.90;99.90;;;;;;5031302;28;20227;-67
2022/01/25 13:00:42;;;;;;;28.47;18.73;;;5.00;99.90;;;;;;5037642;28;20574;-65
2022/01/25 13:03:21;;;;;;;31.03;20.23;;;4.90;99.90;;;;;;5049579;28;20563;-65
2022/01/25 13:05:46;;;;;;;26.80;19.47;;;5.00;99.90;;;;;;5044179;28;20187;-66
2022/01/25 13:08:16;;;;;;;26.70;19.30;;;5.00;99.90;;;;;;5048945;28;20550;-66
2022/01/25 13:10:42;;;;;;;29.07;21.33;;;5.00;99.90;;;;;;5044206;28;20226;-64
2022/01/25 13:13:31;;;;;;;31.90;21.33;;;4.90;99.90;;;;;;5031380;28;20179;-65
2022/01/25 13:15:58;;;;;;;30.87;20.47;;;4.90;99.90;;;;;;5031558;28;20738;-66
2022/01/25 13:18:26;;;;;;;30.63;20.43;;;5.00;99.90;;;;;;5031145;28;20240;-66
2022/01/25 13:21:07;;;;;;;33.80;21.27;;;5.10;99.90;;;;;;5037380;28;20207;-66
2022/01/25 13:23:34;;;;;;;30.27;21.47;;;5.30;99.90;;;;;;5034801;28;20610;-66
2022/01/25 13:26:12;;;;;;;31.23;20.90;;;5.30;99.90;;;;;;5037639;28;20189;-65
2022/01/25 13:31:13;;;;;;;25.63;19.33;;;5.40;99.90;;;;;;5035188;28;20179;-66
2022/01/25 13:33:39;;;;;;;28.83;20.17;;;5.30;99.90;;;;;;5040884;28;20190;-66
2022/01/25 13:36:07;;;;;;;33.70;20.87;;;5.30;99.90;;;;;;5054690;28;20203;-66
2022/01/25 13:38:41;;;;;;;31.17;21.00;;;5.30;99.90;;;;;;5049148;28;20175;-66
2022/01/25 13:46:41;;;;;;;31.00;22.17;;;5.30;99.90;;;;;;5054952;28;20175;-66
2022/01/25 13:49:16;;;;;;;32.23;20.47;;;5.30;99.90;;;;;;5045318;28;20195;-66
2022/01/25 13:51:54;;;;;;;24.93;19.53;;;5.20;99.90;;;;;;5034569;28;20182;-65
2022/01/25 13:54:25;;;;;;;29.67;20.07;;;5.20;99.90;;;;;;5043845;28;20186;-66
2022/01/25 13:56:52;;;;;;;32.37;21.70;;;5.20;99.90;;;;;;5054397;28;20167;-65
2022/01/25 13:59:21;;;;;;;33.47;21.87;;;5.20;99.90;;;;;;5045707;28;20196;-64
2022/01/25 14:01:46;;;;;;;28.53;20.90;;;5.30;99.90;;;;;;5034092;28;20258;-65
2022/01/25 14:04:27;;;;;;;42.23;22.53;;;5.40;99.90;;;;;;5041050;28;20807;-65
2022/01/25 14:06:55;;;;;;;31.93;20.57;;;5.40;99.90;;;;;;5054195;28;20601;-65
2022/01/25 14:09:29;;;;;;;36.40;21.10;;;5.40;99.90;;;;;;5046168;28;20211;-65
2022/01/25 14:23:23;;;;;;;30.33;19.67;;;5.40;99.90;;;;;;5039757;28;20614;-65
2022/01/25 14:25:58;;;;;;;30.70;19.63;;;5.40;99.90;;;;;;5033609;28;20171;-65
2022/01/25 14:28:25;;;;;;;29.97;20.10;;;5.40;99.90;;;;;;5050140;28;20177;-65
2022/01/25 14:30:53;;;;;;;31.00;20.30;;;5.30;99.90;;;;;;5053921;28;20244;-66
2022/01/25 14:33:24;;;;;;;32.37;21.57;;;5.20;99.90;;;;;;5038267;28;20191;-66
2022/01/25 14:35:56;;;;;;;31.53;21.70;;;5.10;99.90;;;;;;5033460;28;20207;-66